Time;durP1;ratioP1;P1;durP2;ratioP2;P2;SDS_P1;SDS_P2;PMS_P1;PMS_P2;Temp;Humidity;BMP_temperature;BMP_pressure;BME280_temperature;BME280_humidity;BME280_pressure;Samples;Min_cycle;Max_cycle;Signal;HPM_P1;HPM_P2
2021/10/05 00:01:12;;;;;;;;;;;19.00;69.90;;;;;;5071930;28;19932;-67
2021/10/05 00:03:39;;;;;;;;;;;19.00;70.90;;;;;;5070558;28;19916;-71
2021/10/05 00:06:06;;;;;;;;;;;19.00;70.90;;;;;;5074521;28;19995;-71
2021/10/05 00:08:32;;;;;;;;;;;19.10;70.90;;;;;;5072937;28;20330;-68
2021/10/05 00:10:59;;;;;;;;;;;19.10;68.60;;;;;;5069102;28;19913;-71
2021/10/05 00:13:26;;;;;;;;;;;19.20;68.90;;;;;;5071674;28;19919;-70
2021/10/05 00:15:52;;;;;;;;;;;19.10;69.90;;;;;;5072035;28;20364;-71
2021/10/05 00:18:19;;;;;;;;;;;19.20;67.60;;;;;;5073070;28;19954;-71
2021/10/05 00:20:46;;;;;;;;;;;18.90;67.00;;;;;;5072418;28;19920;-71
2021/10/05 00:23:12;;;;;;;;;;;19.00;67.70;;;;;;5072721;28;19915;-72
2021/10/05 00:25:39;;;;;;;;;;;19.10;67.00;;;;;;5072113;28;20256;-70
2021/10/05 00:28:06;;;;;;;;;;;19.30;67.00;;;;;;5072634;28;20387;-69
2021/10/05 00:30:33;;;;;;;;;;;19.20;67.70;;;;;;5072619;28;19915;-69
2021/10/05 00:33:00;;;;;;;;;;;19.30;67.40;;;;;;5072060;28;20376;-70
2021/10/05 00:35:28;;;;;;;;;;;19.30;67.30;;;;;;5072347;28;20311;-71
2021/10/05 00:37:55;;;;;;;;;;;19.40;67.70;;;;;;5072664;28;19917;-70
2021/10/05 00:40:22;;;;;;;;;;;19.50;67.60;;;;;;5072267;28;19909;-71
2021/10/05 00:42:48;;;;;;;;;;;19.60;65.90;;;;;;5072357;28;19908;-72
2021/10/05 00:45:15;;;;;;;;;;;19.50;66.40;;;;;;5072159;28;19916;-68
2021/10/05 00:47:43;;;;;;;;;;;19.50;66.70;;;;;;5071749;28;19921;-71
2021/10/05 00:50:14;;;;;;;;;;;19.50;67.80;;;;;;5072636;28;19919;-71
2021/10/05 00:52:44;;;;;;;;;;;19.90;68.20;;;;;;5072581;28;19924;-70
2021/10/05 00:55:11;;;;;;;;;;;20.10;66.80;;;;;;5072732;28;19954;-71
2021/10/05 00:57:38;;;;;;;;;;;21.10;66.10;;;;;;5072460;28;19953;-71
2021/10/05 01:00:06;;;;;;;;;;;21.20;64.50;;;;;;5072032;28;19912;-69
2021/10/05 01:02:33;;;;;;;;;;;21.10;64.10;;;;;;5071653;28;19916;-70
2021/10/05 01:04:59;;;;;;;;;;;21.30;63.50;;;;;;5071538;28;19908;-70
2021/10/05 01:07:26;;;;;;;;;;;20.90;64.80;;;;;;5071786;28;19919;-69
2021/10/05 01:09:54;;;;;;;;;;;21.20;63.80;;;;;;5071492;28;19916;-72
2021/10/05 01:12:21;;;;;;;;;;;21.50;65.20;;;;;;5071673;28;19983;-70
2021/10/05 01:14:47;;;;;;;;;;;21.50;62.10;;;;;;5071532;28;19908;-69
2021/10/05 01:17:14;;;;;;;;;;;21.30;62.80;;;;;;5071934;28;19913;-68
2021/10/05 01:19:41;;;;;;;;;;;21.80;61.40;;;;;;5071667;28;19916;-71
2021/10/05 01:22:08;;;;;;;;;;;21.70;64.00;;;;;;5076120;28;20290;-69
2021/10/05 01:24:35;;;;;;;;;;;21.60;62.10;;;;;;5076381;28;20274;-68
2021/10/05 01:27:02;;;;;;;;;;;21.60;63.10;;;;;;5075776;28;19908;-70
2021/10/05 01:29:30;;;;;;;;;;;21.60;61.60;;;;;;5075379;28;19919;-69
2021/10/05 01:31:58;;;;;;;;;;;21.70;60.80;;;;;;5075623;28;19916;-70
2021/10/05 01:34:28;;;;;;;;;;;21.20;59.90;;;;;;5075552;28;20256;-69
2021/10/05 01:36:59;;;;;;;;;;;21.20;60.50;;;;;;5075517;28;19908;-69
2021/10/05 01:39:27;;;;;;;;;;;21.00;60.60;;;;;;5075698;28;20295;-69
2021/10/05 01:41:54;;;;;;;;;;;20.90;61.30;;;;;;5075273;28;19917;-70
2021/10/05 01:44:21;;;;;;;;;;;20.70;60.50;;;;;;5075205;28;20309;-71
2021/10/05 01:46:50;;;;;;;;;;;20.60;59.50;;;;;;5075103;28;19994;-71
2021/10/05 01:49:17;;;;;;;;;;;20.50;59.50;;;;;;5075057;28;19928;-72
2021/10/05 01:51:44;;;;;;;;;;;20.50;60.50;;;;;;5074912;28;19927;-72
2021/10/05 01:54:12;;;;;;;;;;;20.40;60.90;;;;;;5075179;28;20367;-72
2021/10/05 01:56:38;;;;;;;;;;;20.50;60.00;;;;;;5074975;28;19909;-72
2021/10/05 01:59:05;;;;;;;;;;;20.60;58.80;;;;;;5075204;28;19920;-72
2021/10/05 02:01:32;;;;;;;;;;;20.50;58.00;;;;;;5074713;28;19909;-71
2021/10/05 02:03:59;;;;;;;;;;;20.30;59.70;;;;;;5075351;28;19909;-71
2021/10/05 02:06:26;;;;;;;;;;;20.20;60.30;;;;;;5074895;28;19912;-71
2021/10/05 02:08:53;;;;;;;;;;;20.10;59.90;;;;;;5074814;28;19952;-68
2021/10/05 02:11:19;;;;;;;;;;;20.10;60.50;;;;;;5074127;28;19920;-71
2021/10/05 02:13:46;;;;;;;;;;;20.20;61.20;;;;;;5074559;28;20291;-68
2021/10/05 02:16:13;;;;;;;;;;;20.30;60.90;;;;;;5074532;28;19908;-69
2021/10/05 02:18:40;;;;;;;;;;;20.40;60.10;;;;;;5075036;28;19913;-71
2021/10/05 02:21:06;;;;;;;;;;;20.40;58.70;;;;;;5074561;28;19908;-71
2021/10/05 02:26:23;;;;;;;;;;;20.40;58.20;;;;;;5075064;28;19954;-70
2021/10/05 02:28:50;;;;;;;;;;;20.50;57.50;;;;;;5074537;28;19915;-71
2021/10/05 02:31:16;;;;;;;;;;;20.40;58.50;;;;;;5074326;28;20440;-72
2021/10/05 02:33:43;;;;;;;;;;;20.30;57.80;;;;;;5074450;28;19998;-71
2021/10/05 02:36:10;;;;;;;;;;;20.40;57.50;;;;;;5074973;28;19947;-69
2021/10/05 02:38:36;;;;;;;;;;;20.50;57.30;;;;;;5074968;28;19908;-71
2021/10/05 02:41:03;;;;;;;;;;;20.50;56.30;;;;;;5074142;28;19969;-71
2021/10/05 02:43:30;;;;;;;;;;;20.60;55.50;;;;;;5074255;28;19918;-69
2021/10/05 02:46:00;;;;;;;;;;;20.30;55.30;;;;;;5073020;28;19916;-69
2021/10/05 02:48:26;;;;;;;;;;;20.50;55.50;;;;;;5074053;28;19963;-71
2021/10/05 02:50:53;;;;;;;;;;;20.40;55.60;;;;;;5074136;28;19908;-70
2021/10/05 02:53:20;;;;;;;;;;;20.70;56.20;;;;;;5073900;28;20381;-70
2021/10/05 02:55:47;;;;;;;;;;;20.80;54.90;;;;;;5073731;28;19909;-70
2021/10/05 02:58:14;;;;;;;;;;;20.70;55.80;;;;;;5073669;28;20355;-70
2021/10/05 03:00:41;;;;;;;;;;;20.60;56.00;;;;;;5074050;28;19916;-70
2021/10/05 03:03:08;;;;;;;;;;;20.40;54.30;;;;;;5073352;28;19994;-71
2021/10/05 03:05:35;;;;;;;;;;;20.50;54.90;;;;;;5073075;28;19909;-70
2021/10/05 03:08:04;;;;;;;;;;;20.50;54.80;;;;;;5072600;28;19948;-71
2021/10/05 03:10:30;;;;;;;;;;;20.60;54.10;;;;;;5072178;28;20355;-70
2021/10/05 03:12:57;;;;;;;;;;;20.60;53.60;;;;;;5073470;28;20011;-68
2021/10/05 03:15:24;;;;;;;;;;;20.50;55.80;;;;;;5073640;28;19912;-69
2021/10/05 03:17:50;;;;;;;;;;;20.60;54.50;;;;;;5073385;28;19919;-70
2021/10/05 03:20:17;;;;;;;;;;;20.70;55.70;;;;;;5073675;28;19912;-68
2021/10/05 03:22:44;;;;;;;;;;;20.80;53.50;;;;;;5073674;28;20321;-71
2021/10/05 03:25:11;;;;;;;;;;;21.10;55.10;;;;;;5073265;28;19909;-70
2021/10/05 03:27:37;;;;;;;;;;;21.00;53.10;;;;;;5073076;28;20004;-69
2021/10/05 03:30:07;;;;;;;;;;;20.80;53.00;;;;;;5073531;28;20347;-70
2021/10/05 03:32:34;;;;;;;;;;;20.70;53.40;;;;;;5073238;28;19989;-70
2021/10/05 03:35:01;;;;;;;;;;;20.70;54.20;;;;;;5073391;28;19962;-71
2021/10/05 03:37:28;;;;;;;;;;;20.70;52.90;;;;;;5074447;28;19912;-70
2021/10/05 03:39:55;;;;;;;;;;;20.70;53.00;;;;;;5073472;28;19908;-72
2021/10/05 03:42:21;;;;;;;;;;;20.70;51.60;;;;;;5072342;28;19908;-69
2021/10/05 03:44:48;;;;;;;;;;;20.70;53.50;;;;;;5072846;28;19912;-71
2021/10/05 03:47:15;;;;;;;;;;;20.60;51.50;;;;;;5072370;28;20411;-72
2021/10/05 03:49:41;;;;;;;;;;;20.60;52.50;;;;;;5072570;28;20334;-72
2021/10/05 03:52:08;;;;;;;;;;;20.70;52.90;;;;;;5072982;28;19916;-71
2021/10/05 03:54:35;;;;;;;;;;;20.70;53.00;;;;;;5073266;28;20355;-71
2021/10/05 03:57:02;;;;;;;;;;;20.70;52.20;;;;;;5072856;28;19909;-71
2021/10/05 03:59:29;;;;;;;;;;;20.70;51.60;;;;;;5073103;28;20723;-71
2021/10/05 04:01:56;;;;;;;;;;;20.70;52.60;;;;;;5073430;28;19919;-71
2021/10/05 04:04:25;;;;;;;;;;;20.70;53.60;;;;;;5073052;28;19912;-70
2021/10/05 04:06:52;;;;;;;;;;;20.90;53.70;;;;;;5073369;28;19961;-71
2021/10/05 04:09:19;;;;;;;;;;;21.00;52.50;;;;;;5073207;28;19908;-71
2021/10/05 04:11:45;;;;;;;;;;;20.80;52.20;;;;;;5072168;28;19974;-68
2021/10/05 04:14:12;;;;;;;;;;;20.80;51.80;;;;;;5073131;28;19915;-70
2021/10/05 04:16:39;;;;;;;;;;;20.80;51.60;;;;;;5072960;28;19954;-70
2021/10/05 04:19:05;;;;;;;;;;;20.80;52.30;;;;;;5072892;28;19914;-70
2021/10/05 04:21:32;;;;;;;;;;;20.80;53.20;;;;;;5072010;28;19919;-70
2021/10/05 04:23:59;;;;;;;;;;;20.70;53.30;;;;;;5072474;28;19909;-69
2021/10/05 04:26:25;;;;;;;;;;;20.60;52.50;;;;;;5072117;28;19919;-70
2021/10/05 04:28:52;;;;;;;;;;;20.60;52.40;;;;;;5072792;28;19909;-68
2021/10/05 04:31:19;;;;;;;;;;;20.60;52.90;;;;;;5072624;28;19917;-69
2021/10/05 04:33:46;;;;;;;;;;;20.60;53.80;;;;;;5072180;28;20460;-68
2021/10/05 04:36:12;;;;;;;;;;;20.60;53.50;;;;;;5072695;28;20282;-72
2021/10/05 04:38:39;;;;;;;;;;;20.60;54.00;;;;;;5072944;28;19909;-70
2021/10/05 04:41:06;;;;;;;;;;;20.70;53.20;;;;;;5072191;28;20389;-71
2021/10/05 04:43:32;;;;;;;;;;;20.70;52.90;;;;;;5072471;28;19940;-72
2021/10/05 04:45:59;;;;;;;;;;;20.70;53.60;;;;;;5073057;28;19962;-69
2021/10/05 04:48:26;;;;;;;;;;;20.70;53.20;;;;;;5072665;28;20575;-70
2021/10/05 04:50:52;;;;;;;;;;;20.70;54.10;;;;;;5072439;28;19962;-71
2021/10/05 04:53:19;;;;;;;;;;;20.80;53.00;;;;;;5073078;28;19959;-69
2021/10/05 04:55:48;;;;;;;;;;;20.70;53.20;;;;;;5078436;28;20438;-68
2021/10/05 04:58:15;;;;;;;;;;;20.70;54.10;;;;;;5078880;28;20140;-69
2021/10/05 05:00:41;;;;;;;;;;;20.70;55.70;;;;;;5078806;28;19909;-71
2021/10/05 05:03:08;;;;;;;;;;;20.70;53.00;;;;;;5078483;28;20363;-71
2021/10/05 05:05:35;;;;;;;;;;;20.60;53.00;;;;;;5078069;28;19991;-68
2021/10/05 05:08:04;;;;;;;;;;;20.60;54.90;;;;;;5078553;28;19990;-71
2021/10/05 05:10:31;;;;;;;;;;;20.60;53.20;;;;;;5078211;28;19915;-68
2021/10/05 05:12:58;;;;;;;;;;;20.70;53.10;;;;;;5078492;28;19916;-70
2021/10/05 05:15:25;;;;;;;;;;;20.70;55.20;;;;;;5078312;28;19939;-68
2021/10/05 05:17:51;;;;;;;;;;;20.70;53.60;;;;;;5078303;28;19908;-68
2021/10/05 05:23:53;;;;;;;;;;;20.70;53.80;;;;;;5107489;27;20379;-68
2021/10/05 05:26:20;;;;;;;;;;;20.70;53.10;;;;;;5107908;28;19919;-70
2021/10/05 05:28:50;;;;;;;;;;;20.70;53.60;;;;;;5105211;28;19951;-71
2021/10/05 05:31:16;;;;;;;;;;;20.60;52.40;;;;;;5108576;28;20007;-69
2021/10/05 05:33:43;;;;;;;;;;;20.50;53.00;;;;;;5108226;28;19908;-70
2021/10/05 05:36:10;;;;;;;;;;;20.60;52.20;;;;;;5108347;28;19908;-70
2021/10/05 05:38:37;;;;;;;;;;;20.50;52.30;;;;;;5109030;28;19908;-69
2021/10/05 05:41:04;;;;;;;;;;;20.50;53.00;;;;;;5109278;28;20392;-69
2021/10/05 05:43:30;;;;;;;;;;;20.50;52.80;;;;;;5108141;28;19924;-69
2021/10/05 05:45:57;;;;;;;;;;;20.50;53.20;;;;;;5109553;28;19915;-69
2021/10/05 05:48:24;;;;;;;;;;;20.50;52.40;;;;;;5109601;28;19908;-70
2021/10/05 05:50:51;;;;;;;;;;;20.40;53.70;;;;;;5108214;28;20003;-69
2021/10/05 05:53:18;;;;;;;;;;;20.40;52.50;;;;;;5106658;28;19919;-68
2021/10/05 05:55:45;;;;;;;;;;;20.40;53.20;;;;;;5107121;28;19915;-70
2021/10/05 05:58:15;;;;;;;;;;;20.50;53.40;;;;;;5105924;28;20023;-68
2021/10/05 06:00:46;;;;;;;;;;;20.40;53.20;;;;;;5107435;28;20379;-68
2021/10/05 06:03:13;;;;;;;;;;;20.40;54.10;;;;;;5105122;28;19955;-69
2021/10/05 06:05:40;;;;;;;;;;;20.40;54.10;;;;;;5107013;28;20366;-68
2021/10/05 06:08:08;;;;;;;;;;;20.50;54.80;;;;;;5107479;28;19912;-68
2021/10/05 06:10:35;;;;;;;;;;;20.40;53.40;;;;;;5106615;28;20029;-68
2021/10/05 06:13:03;;;;;;;;;;;20.40;53.70;;;;;;5106792;28;20014;-67
2021/10/05 06:15:29;;;;;;;;;;;20.40;53.40;;;;;;5107508;28;19959;-70
2021/10/05 06:17:56;;;;;;;;;;;20.30;54.20;;;;;;5105599;28;20485;-69
2021/10/05 06:20:28;;;;;;;;;;;20.20;53.60;;;;;;5107491;28;19939;-69
2021/10/05 06:22:56;;;;;;;;;;;20.20;53.90;;;;;;5119973;28;19973;-69
2021/10/05 06:25:25;;;;;;;;;;;20.20;55.20;;;;;;5127849;28;19911;-67
2021/10/05 06:27:53;;;;;;;;;;;20.20;54.40;;;;;;5127133;28;19915;-68
2021/10/05 06:30:20;;;;;;;;;;;20.20;55.20;;;;;;5125679;28;20022;-70
2021/10/05 06:32:52;;;;;;;;;;;20.20;54.20;;;;;;5126867;28;19912;-70
2021/10/05 06:35:21;;;;;;;;;;;20.20;54.30;;;;;;5103988;28;19915;-67
2021/10/05 06:37:49;;;;;;;;;;;20.20;54.20;;;;;;5092509;28;19908;-70
2021/10/05 06:40:16;;;;;;;;;;;20.10;54.20;;;;;;5092333;28;20293;-68
2021/10/05 06:42:42;;;;;;;;;;;20.10;54.70;;;;;;5112994;28;20039;-68
2021/10/05 06:45:09;;;;;;;;;;;20.10;55.70;;;;;;5112724;28;19907;-68
2021/10/05 06:47:36;;;;;;;;;;;20.10;55.70;;;;;;5113094;28;19953;-67
2021/10/05 06:50:03;;;;;;;;;;;20.10;55.80;;;;;;5113169;28;19977;-68
2021/10/05 06:52:30;;;;;;;;;;;20.10;55.80;;;;;;5113140;28;19908;-70
2021/10/05 06:54:57;;;;;;;;;;;20.10;55.50;;;;;;5111407;28;19908;-70
2021/10/05 06:57:23;;;;;;;;;;;20.00;56.80;;;;;;5112899;28;20246;-69
2021/10/05 06:59:50;;;;;;;;;;;20.00;56.20;;;;;;5095386;28;19916;-69
2021/10/05 07:02:17;;;;;;;;;;;20.00;56.70;;;;;;5092691;28;19912;-68
2021/10/05 07:04:43;;;;;;;;;;;20.00;56.40;;;;;;5092345;28;19916;-67
2021/10/05 07:07:10;;;;;;;;;;;19.90;56.70;;;;;;5092357;28;20243;-69
2021/10/05 07:09:37;;;;;;;;;;;20.00;56.70;;;;;;5091937;28;19912;-67
2021/10/05 07:12:04;;;;;;;;;;;20.00;57.10;;;;;;5112461;28;19964;-70
2021/10/05 07:14:31;;;;;;;;;;;19.90;57.10;;;;;;5112630;28;19915;-68
2021/10/05 07:16:58;;;;;;;;;;;19.80;56.90;;;;;;5094253;28;19947;-71
2021/10/05 07:19:24;;;;;;;;;;;19.70;56.70;;;;;;5112465;28;19908;-67
2021/10/05 07:21:51;;;;;;;;;;;19.60;57.60;;;;;;5111935;28;19926;-70
2021/10/05 07:24:18;;;;;;;;;;;19.60;57.60;;;;;;5111037;28;19960;-68
2021/10/05 07:26:44;;;;;;;;;;;19.50;58.20;;;;;;5112691;28;19908;-68
2021/10/05 07:29:12;;;;;;;;;;;19.40;57.40;;;;;;5112396;28;19999;-69
2021/10/05 07:31:39;;;;;;;;;;;19.30;57.60;;;;;;5112163;28;20006;-70
2021/10/05 07:34:07;;;;;;;;;;;19.20;58.20;;;;;;5112210;28;20239;-70
2021/10/05 07:36:34;;;;;;;;;;;19.10;58.40;;;;;;5112069;28;19915;-69
2021/10/05 07:39:00;;;;;;;;;;;19.00;58.70;;;;;;5110176;28;19912;-70
2021/10/05 07:41:27;;;;;;;;;;;19.00;58.40;;;;;;5111638;28;19908;-71
2021/10/05 07:43:54;;;;;;;;;;;19.00;57.70;;;;;;5111559;28;19908;-70
2021/10/05 07:46:21;;;;;;;;;;;18.90;58.40;;;;;;5111369;28;19969;-69
2021/10/05 07:48:48;;;;;;;;;;;18.90;58.80;;;;;;5112081;28;19945;-68
2021/10/05 07:51:15;;;;;;;;;;;18.80;58.40;;;;;;5112408;28;19912;-69
2021/10/05 07:53:41;;;;;;;;;;;18.70;58.90;;;;;;5110680;28;19912;-70
2021/10/05 07:56:08;;;;;;;;;;;18.70;58.10;;;;;;5112462;28;19919;-68
2021/10/05 07:58:36;;;;;;;;;;;18.60;58.80;;;;;;5112658;28;19912;-70
2021/10/05 08:01:03;;;;;;;;;;;18.60;58.80;;;;;;5112161;28;20456;-70
2021/10/05 08:03:30;;;;;;;;;;;18.50;58.90;;;;;;5111712;28;20022;-68
2021/10/05 08:05:57;;;;;;;;;;;18.50;59.70;;;;;;5091480;28;19915;-68
2021/10/05 08:08:23;;;;;;;;;;;18.40;60.10;;;;;;5092573;28;19923;-69
2021/10/05 08:10:50;;;;;;;;;;;18.40;60.30;;;;;;5112989;28;20030;-69
2021/10/05 08:13:17;;;;;;;;;;;18.40;60.80;;;;;;5113729;28;19915;-68
2021/10/05 08:15:44;;;;;;;;;;;18.30;60.70;;;;;;5113514;28;19954;-70
2021/10/05 08:18:10;;;;;;;;;;;18.30;60.40;;;;;;5113568;28;20311;-68
2021/10/05 08:20:38;;;;;;;;;;;18.30;61.10;;;;;;5113577;28;19908;-69
2021/10/05 08:23:04;;;;;;;;;;;18.30;61.60;;;;;;5088830;28;19920;-70
2021/10/05 08:25:31;;;;;;;;;;;18.20;60.70;;;;;;5092914;28;20029;-69
2021/10/05 08:27:58;;;;;;;;;;;18.10;61.40;;;;;;5093172;28;19908;-70
2021/10/05 08:30:25;;;;;;;;;;;18.10;60.80;;;;;;5093690;28;19919;-70
2021/10/05 08:32:52;;;;;;;;;;;18.10;61.20;;;;;;5093059;28;19908;-69
2021/10/05 08:35:19;;;;;;;;;;;18.00;61.70;;;;;;5092749;28;20278;-69
2021/10/05 08:37:46;;;;;;;;;;;18.00;61.90;;;;;;5093133;28;20398;-67
2021/10/05 08:40:13;;;;;;;;;;;18.00;61.10;;;;;;5091274;28;20267;-70
2021/10/05 08:42:39;;;;;;;;;;;18.00;61.20;;;;;;5093014;28;19982;-70
2021/10/05 08:45:08;;;;;;;;;;;17.90;61.20;;;;;;5093087;28;19963;-70
2021/10/05 08:47:35;;;;;;;;;;;17.90;61.30;;;;;;5092865;28;20427;-70
2021/10/05 08:50:02;;;;;;;;;;;17.80;61.40;;;;;;5092860;28;19937;-69
2021/10/05 08:52:29;;;;;;;;;;;17.80;61.10;;;;;;5092820;28;19908;-71
2021/10/05 08:54:55;;;;;;;;;;;17.80;61.70;;;;;;5091750;28;19912;-71
2021/10/05 08:57:22;;;;;;;;;;;17.80;61.60;;;;;;5092665;28;19912;-71
2021/10/05 08:59:49;;;;;;;;;;;17.70;61.50;;;;;;5092788;28;19908;-70
2021/10/05 09:02:17;;;;;;;;;;;17.80;61.90;;;;;;5093401;28;19926;-69
2021/10/05 09:04:45;;;;;;;;;;;17.70;63.00;;;;;;5092863;28;19908;-70
2021/10/05 09:07:18;;;;;;;;;;;17.70;62.00;;;;;;5093007;28;19908;-70
2021/10/05 09:09:58;;;;;;;;;;;17.60;61.70;;;;;;5091097;28;19947;-71
2021/10/05 09:12:28;;;;;;;;;;;17.70;62.30;;;;;;5093167;28;19943;-70
2021/10/05 09:14:55;;;;;;;;;;;17.60;62.30;;;;;;5093622;28;20282;-70
2021/10/05 09:17:22;;;;;;;;;;;17.60;62.20;;;;;;5093351;28;19912;-70
2021/10/05 09:19:50;;;;;;;;;;;17.50;62.80;;;;;;5092800;28;19908;-68
2021/10/05 09:22:18;;;;;;;;;;;17.50;62.20;;;;;;5096901;28;19926;-69
2021/10/05 09:24:47;;;;;;;;;;;17.50;63.00;;;;;;5072508;28;19913;-67
2021/10/05 09:27:14;;;;;;;;;;;17.50;62.20;;;;;;5072787;28;19908;-68
2021/10/05 09:29:42;;;;;;;;;;;17.50;61.90;;;;;;5072485;28;19916;-70
2021/10/05 09:32:13;;;;;;;;;;;17.40;62.00;;;;;;5072701;28;19913;-70
2021/10/05 09:34:45;;;;;;;;;;;17.40;62.50;;;;;;5072280;28;19908;-68
2021/10/05 09:37:21;;;;;;;;;;;17.40;63.10;;;;;;5076231;28;19926;-70
2021/10/05 09:39:52;;;;;;;;;;;17.40;62.50;;;;;;5112597;28;19951;-70
2021/10/05 09:42:43;;;;;;;;;;;17.40;62.70;;;;;;5112867;28;20362;-70
2021/10/05 09:45:11;;;;;;;;;;;17.30;62.70;;;;;;5103356;28;19914;-70
2021/10/05 09:47:39;;;;;;;;;;;17.30;63.90;;;;;;5112737;28;19908;-71
2021/10/05 09:50:13;;;;;;;;;;;17.20;63.00;;;;;;5112228;28;19908;-70
2021/10/05 09:52:41;;;;;;;;;;;17.20;63.00;;;;;;5094270;28;19913;-68
2021/10/05 09:55:08;;;;;;;;;;;17.20;62.90;;;;;;5071652;28;19944;-71
2021/10/05 09:57:35;;;;;;;;;;;17.30;63.10;;;;;;5071122;28;19919;-70
2021/10/05 10:00:01;;;;;;;;;;;17.20;63.10;;;;;;5071653;28;19909;-69
2021/10/05 10:02:28;;;;;;;;;;;17.20;63.20;;;;;;5071778;28;19973;-69
2021/10/05 10:04:55;;;;;;;;;;;17.10;63.30;;;;;;5071555;28;19908;-69
2021/10/05 10:07:22;;;;;;;;;;;17.10;63.50;;;;;;5086755;28;19973;-69
2021/10/05 10:09:49;;;;;;;;;;;17.00;63.80;;;;;;5114197;28;19918;-70
2021/10/05 10:12:16;;;;;;;;;;;17.10;65.00;;;;;;5115419;28;20277;-70
2021/10/05 10:14:43;;;;;;;;;;;17.00;64.20;;;;;;5115933;28;19994;-69
2021/10/05 10:17:09;;;;;;;;;;;17.00;64.40;;;;;;5116357;28;19908;-68
2021/10/05 10:19:36;;;;;;;;;;;17.00;65.50;;;;;;5097638;28;19915;-69
2021/10/05 10:22:12;;;;;;;;;;;16.90;64.50;;;;;;5114623;28;19920;-68
2021/10/05 10:24:47;;;;;;;;;;;16.90;65.00;;;;;;5097707;28;19915;-67
2021/10/05 10:27:14;;;;;;;;;;;16.90;65.40;;;;;;5115045;28;19908;-69
2021/10/05 10:29:40;;;;;;;;;;;16.90;65.50;;;;;;5115212;28;19908;-67
2021/10/05 10:32:11;;;;;;;;;;;16.90;66.00;;;;;;5115817;28;19992;-69
2021/10/05 10:34:39;;;;;;;;;;;16.80;65.40;;;;;;5115642;28;19951;-68
2021/10/05 10:37:10;;;;;;;;;;;16.90;66.20;;;;;;5112609;28;19920;-68
2021/10/05 10:39:38;;;;;;;;;;;16.80;66.20;;;;;;5115383;28;19908;-67
2021/10/05 10:42:06;;;;;;;;;;;16.80;65.90;;;;;;5115233;28;19924;-67
2021/10/05 10:44:37;;;;;;;;;;;16.80;67.10;;;;;;5116240;28;19912;-68
2021/10/05 10:47:12;;;;;;;;;;;16.80;67.10;;;;;;5117152;28;20321;-70
2021/10/05 10:49:39;;;;;;;;;;;16.80;66.60;;;;;;5116514;28;19907;-69
2021/10/05 10:52:06;;;;;;;;;;;16.80;68.20;;;;;;5115532;28;19912;-68
2021/10/05 10:54:33;;;;;;;;;;;16.80;66.70;;;;;;5115399;28;19911;-68
2021/10/05 10:57:04;;;;;;;;;;;16.70;66.50;;;;;;5109856;28;19912;-70
2021/10/05 10:59:32;;;;;;;;;;;16.60;66.80;;;;;;5118344;28;19912;-71
2021/10/05 11:02:03;;;;;;;;;;;16.60;67.40;;;;;;5122787;28;20323;-67
2021/10/05 11:04:30;;;;;;;;;;;16.60;66.90;;;;;;5116508;28;19908;-68
2021/10/05 11:06:58;;;;;;;;;;;16.50;67.30;;;;;;5116810;28;19964;-68
2021/10/05 11:09:32;;;;;;;;;;;16.50;67.40;;;;;;5115181;28;20370;-69
2021/10/05 11:11:59;;;;;;;;;;;16.50;68.80;;;;;;5096332;28;20351;-68
2021/10/05 11:14:28;;;;;;;;;;;16.50;67.50;;;;;;5114744;28;20390;-68
2021/10/05 11:16:54;;;;;;;;;;;16.50;68.10;;;;;;5114901;28;19907;-69
2021/10/05 11:19:21;;;;;;;;;;;16.50;68.40;;;;;;5114778;28;19915;-69
2021/10/05 11:21:49;;;;;;;;;;;16.40;68.00;;;;;;5112469;28;19920;-70
2021/10/05 11:24:16;;;;;;;;;;;16.40;69.50;;;;;;5114960;28;19915;-69
2021/10/05 11:26:45;;;;;;;;;;;16.40;68.20;;;;;;5114933;28;20359;-69
2021/10/05 11:29:21;;;;;;;;;;;16.40;68.70;;;;;;5114735;28;20337;-70
2021/10/05 11:31:50;;;;;;;;;;;16.30;69.00;;;;;;5114503;28;19915;-69
2021/10/05 11:34:17;;;;;;;;;;;16.30;68.60;;;;;;5114654;28;19943;-68
2021/10/05 11:36:45;;;;;;;;;;;16.20;69.30;;;;;;5113612;28;19934;-70
2021/10/05 11:39:18;;;;;;;;;;;16.30;69.20;;;;;;5114904;28;19912;-72
2021/10/05 11:41:45;;;;;;;;;;;16.30;70.00;;;;;;5114755;28;19914;-71
2021/10/05 11:44:18;;;;;;;;;;;16.30;69.30;;;;;;5114802;28;19961;-72
2021/10/05 11:46:55;;;;;;;;;;;16.30;70.20;;;;;;5114763;28;19907;-69
2021/10/05 11:49:22;;;;;;;;;;;16.30;69.50;;;;;;5117340;28;19943;-70
2021/10/05 11:51:51;;;;;;;;;;;16.30;69.60;;;;;;5112584;28;19937;-71
2021/10/05 11:54:36;;;;;;;;;;;16.30;69.80;;;;;;5114372;28;20350;-71
2021/10/05 11:57:08;;;;;;;;;;;16.30;69.90;;;;;;5114220;28;19962;-71
2021/10/05 11:59:35;;;;;;;;;;;16.20;70.00;;;;;;5113965;28;19915;-71
2021/10/05 12:02:04;;;;;;;;;;;16.20;70.10;;;;;;5114264;28;19916;-72
2021/10/05 12:04:30;;;;;;;;;;;16.30;71.00;;;;;;5112614;28;20002;-72
2021/10/05 12:07:01;;;;;;;;;;;16.30;70.40;;;;;;5074469;28;20402;-71
2021/10/05 12:09:29;;;;;;;;;;;16.20;70.40;;;;;;5073426;28;20385;-70
2021/10/05 12:12:16;;;;;;;;;;;16.10;71.30;;;;;;5073106;28;19909;-71
2021/10/05 12:14:57;;;;;;;;;;;16.10;70.70;;;;;;5072903;28;19917;-71
2021/10/05 12:17:25;;;;;;;;;;;16.10;71.50;;;;;;5073114;28;19908;-67
2021/10/05 12:19:52;;;;;;;;;;;16.00;71.00;;;;;;5083267;28;19998;-71
2021/10/05 12:22:21;;;;;;;;;;;16.00;71.20;;;;;;5113455;28;19972;-71
2021/10/05 12:24:52;;;;;;;;;;;16.00;72.50;;;;;;5113243;28;19911;-71
2021/10/05 12:27:20;;;;;;;;;;;16.10;72.20;;;;;;5113772;28;19908;-71
2021/10/05 12:29:48;;;;;;;;;;;16.00;71.40;;;;;;5113271;28;19931;-70
2021/10/05 12:32:15;;;;;;;;;;;16.00;71.80;;;;;;5113017;28;19953;-70
2021/10/05 12:34:49;;;;;;;;;;;15.90;73.20;;;;;;5112306;28;19916;-69
2021/10/05 12:37:17;;;;;;;;;;;15.90;71.80;;;;;;5113456;28;19915;-70
2021/10/05 12:39:53;;;;;;;;;;;15.90;72.60;;;;;;5113019;28;19981;-70
2021/10/05 12:42:20;;;;;;;;;;;15.90;72.20;;;;;;5113201;28;19912;-69
2021/10/05 12:44:53;;;;;;;;;;;15.80;72.10;;;;;;5113362;28;19914;-70
2021/10/05 12:47:20;;;;;;;;;;;15.90;72.70;;;;;;5113240;28;20000;-70
2021/10/05 12:49:53;;;;;;;;;;;15.90;72.40;;;;;;5111065;28;19912;-70
2021/10/05 12:52:20;;;;;;;;;;;15.80;72.80;;;;;;5113291;28;19908;-68
2021/10/05 12:54:46;;;;;;;;;;;15.70;72.90;;;;;;5113074;28;19995;-67
2021/10/05 12:57:13;;;;;;;;;;;15.70;73.80;;;;;;5113075;28;19915;-67
2021/10/05 12:59:50;;;;;;;;;;;15.70;73.60;;;;;;5113073;28;19950;-69
2021/10/05 13:02:16;;;;;;;;;;;15.70;73.50;;;;;;5113295;28;19920;-70
2021/10/05 13:04:43;;;;;;;;;;;15.70;74.00;;;;;;5111489;28;19911;-69
2021/10/05 13:07:10;;;;;;;;;;;15.70;73.80;;;;;;5112988;28;19908;-68
2021/10/05 13:09:37;;;;;;;;;;;15.70;74.20;;;;;;5112680;28;19914;-70
2021/10/05 13:12:03;;;;;;;;;;;15.70;74.00;;;;;;5113075;28;19914;-67
2021/10/05 13:14:30;;;;;;;;;;;15.70;74.20;;;;;;5113201;28;19960;-69
2021/10/05 13:16:57;;;;;;;;;;;15.60;74.60;;;;;;5112870;28;19908;-68
2021/10/05 13:19:23;;;;;;;;;;;15.60;74.50;;;;;;5110711;28;20045;-68
2021/10/05 13:21:50;;;;;;;;;;;15.60;74.30;;;;;;5112411;28;20100;-68
2021/10/05 13:24:17;;;;;;;;;;;15.60;75.40;;;;;;5112569;28;19907;-68
2021/10/05 13:26:44;;;;;;;;;;;15.50;75.70;;;;;;5112876;28;19933;-70
2021/10/05 13:29:11;;;;;;;;;;;15.60;74.60;;;;;;5111276;28;19911;-68
2021/10/05 13:31:37;;;;;;;;;;;15.70;74.70;;;;;;5112049;28;20274;-68
2021/10/05 13:34:04;;;;;;;;;;;15.60;75.50;;;;;;5111709;28;19918;-68
2021/10/05 13:36:31;;;;;;;;;;;15.70;74.90;;;;;;5112712;28;20015;-70
2021/10/05 13:38:57;;;;;;;;;;;15.70;75.00;;;;;;5112302;28;19914;-68
2021/10/05 13:41:24;;;;;;;;;;;15.60;75.60;;;;;;5112552;28;19995;-68
2021/10/05 13:43:51;;;;;;;;;;;15.60;75.10;;;;;;5113186;28;19916;-68
2021/10/05 13:46:17;;;;;;;;;;;15.60;75.20;;;;;;5116875;28;19911;-68
2021/10/05 13:48:44;;;;;;;;;;;15.70;75.30;;;;;;5114624;28;20003;-68
2021/10/05 13:51:11;;;;;;;;;;;15.60;75.50;;;;;;5116691;28;20006;-68
2021/10/05 13:53:37;;;;;;;;;;;15.60;76.10;;;;;;5116443;28;19908;-69
2021/10/05 13:56:04;;;;;;;;;;;15.70;75.30;;;;;;5116671;28;19908;-68
2021/10/05 13:58:31;;;;;;;;;;;15.50;75.20;;;;;;5116566;28;19947;-68
2021/10/05 14:00:58;;;;;;;;;;;15.50;75.70;;;;;;5116399;28;19946;-69
2021/10/05 14:03:24;;;;;;;;;;;15.40;76.40;;;;;;5115134;28;19927;-68
2021/10/05 14:05:51;;;;;;;;;;;15.40;75.40;;;;;;5115995;28;19908;-68
2021/10/05 14:08:18;;;;;;;;;;;15.30;75.50;;;;;;5116260;28;19932;-68
2021/10/05 14:10:44;;;;;;;;;;;15.40;75.80;;;;;;5116514;28;19907;-68
2021/10/05 14:13:11;;;;;;;;;;;15.30;75.70;;;;;;5116641;28;19915;-68
2021/10/05 14:15:38;;;;;;;;;;;15.30;76.10;;;;;;5116083;28;19923;-67
2021/10/05 14:18:06;;;;;;;;;;;15.30;76.60;;;;;;5114339;28;19912;-68
2021/10/05 14:20:33;;;;;;;;;;;15.30;76.10;;;;;;5116217;28;20223;-68
2021/10/05 14:23:00;;;;;;;;;;;15.20;75.70;;;;;;5115910;28;20312;-67
2021/10/05 14:25:27;;;;;;;;;;;15.20;75.60;;;;;;5115874;28;19939;-68